createdAt,value
2018-09-05T00:00:46.681Z,83.13
2018-09-05T00:03:15.702Z,82.41
2018-09-05T00:05:44.699Z,82.80
2018-09-05T00:08:13.654Z,82.03
2018-09-05T00:10:42.588Z,82.01
2018-09-05T00:13:12.318Z,82.60
2018-09-05T00:15:41.374Z,81.83
2018-09-05T00:18:10.624Z,82.08
2018-09-05T00:20:39.826Z,82.32
2018-09-05T00:23:09.742Z,82.46
2018-09-05T00:25:38.779Z,81.94
2018-09-05T00:28:07.878Z,82.00
2018-09-05T00:30:36.836Z,82.30
2018-09-05T00:33:05.920Z,82.10
2018-09-05T00:35:34.855Z,82.37
2018-09-05T00:38:04.799Z,82.63
2018-09-05T00:40:33.850Z,82.10
2018-09-05T00:43:02.914Z,82.32
2018-09-05T00:45:31.958Z,82.52
2018-09-05T00:48:01.098Z,82.20
2018-09-05T00:50:30.442Z,81.55
2018-09-05T00:52:59.503Z,81.72
2018-09-05T00:55:28.384Z,81.48
2018-09-05T00:57:57.582Z,82.20
2018-09-05T01:00:26.525Z,81.83
2018-09-05T01:02:55.830Z,81.66
2018-09-05T01:05:24.829Z,81.66
2018-09-05T01:07:53.827Z,80.95
2018-09-05T01:10:22.858Z,81.25
2018-09-05T01:12:52.274Z,81.62
2018-09-05T01:15:21.370Z,81.20
2018-09-05T01:17:50.710Z,80.92
2018-09-05T01:20:19.576Z,81.46
2018-09-05T01:22:48.589Z,81.52
2018-09-05T01:25:17.535Z,81.03
2018-09-05T01:27:46.404Z,80.67
2018-09-05T01:30:15.417Z,80.95
2018-09-05T01:32:44.441Z,80.31
2018-09-05T01:35:14.275Z,81.03
2018-09-05T01:37:43.335Z,80.96
2018-09-05T01:40:12.377Z,80.65
2018-09-05T01:42:42.026Z,80.31
2018-09-05T01:45:10.978Z,80.37
2018-09-05T01:47:39.971Z,80.60
2018-09-05T01:50:09.012Z,81.01
2018-09-05T01:52:38.056Z,80.62
2018-09-05T01:55:07.305Z,81.07
2018-09-05T01:57:36.279Z,81.39
2018-09-05T02:00:05.442Z,81.26
2018-09-05T02:02:34.996Z,81.49
2018-09-05T02:05:04.225Z,81.82
2018-09-05T02:07:33.292Z,81.89
2018-09-05T02:10:02.210Z,81.76
2018-09-05T02:12:31.128Z,81.58
2018-09-05T02:15:00.807Z,81.77
2018-09-05T02:17:29.805Z,81.53
2018-09-05T02:19:58.761Z,80.86
2018-09-05T02:22:27.626Z,81.00
2018-09-05T02:24:56.554Z,81.53
2018-09-05T02:27:25.609Z,80.96
2018-09-05T02:29:54.640Z,80.92
2018-09-05T02:32:23.533Z,80.67
2018-09-05T02:34:52.702Z,80.52
2018-09-05T02:37:21.960Z,81.06
2018-09-05T02:39:50.998Z,80.89
2018-09-05T02:42:20.344Z,80.90
2018-09-05T02:44:49.426Z,81.49
2018-09-05T02:47:18.848Z,81.11
2018-09-05T02:49:47.668Z,81.14
2018-09-05T02:52:16.667Z,81.32
2018-09-05T02:54:45.694Z,81.57
2018-09-05T02:57:14.674Z,81.47
2018-09-05T02:59:43.537Z,81.73
2018-09-05T03:02:13.129Z,81.57
2018-09-05T03:04:42.149Z,81.43
2018-09-05T03:07:11.214Z,81.76
2018-09-05T03:09:40.338Z,81.98
2018-09-05T03:12:09.452Z,81.78
2018-09-05T03:14:38.355Z,81.47
2018-09-05T03:17:07.426Z,81.51
2018-09-05T03:19:36.517Z,80.94
2018-09-05T03:22:05.478Z,81.13
2018-09-05T03:24:34.706Z,81.30
2018-09-05T03:27:04.339Z,81.28
2018-09-05T03:29:33.433Z,80.92
2018-09-05T03:32:02.287Z,81.02
2018-09-05T03:34:31.401Z,80.40
2018-09-05T03:37:00.518Z,80.06
2018-09-05T03:39:29.574Z,80.31
2018-09-05T03:41:58.486Z,80.46
2018-09-05T03:44:27.498Z,80.25
2018-09-05T03:46:56.510Z,80.19
2018-09-05T03:49:25.401Z,80.06
2018-09-05T03:51:54.892Z,80.38
2018-09-05T03:54:23.947Z,80.97
2018-09-05T03:56:52.934Z,81.26
2018-09-05T03:59:22.154Z,80.71
2018-09-05T04:01:51.050Z,81.28
2018-09-05T04:04:20.982Z,81.13
2018-09-05T04:06:49.869Z,81.06
2018-09-05T04:09:19.033Z,81.45
2018-09-05T04:11:48.175Z,81.19
2018-09-05T04:14:18.086Z,80.83
2018-09-05T04:16:47.070Z,81.39
2018-09-05T04:19:16.771Z,81.27
2018-09-05T04:21:45.778Z,81.37
2018-09-05T04:24:14.670Z,81.30
2018-09-05T04:26:43.794Z,81.13
2018-09-05T04:29:13.089Z,81.19
2018-09-05T04:31:42.230Z,81.23
2018-09-05T04:34:11.356Z,81.33
2018-09-05T04:36:40.461Z,81.10
2018-09-05T04:39:10.634Z,80.57
2018-09-05T04:41:39.527Z,80.99
2018-09-05T04:44:09.022Z,80.84
2018-09-05T04:46:38.346Z,80.86
2018-09-05T04:49:07.417Z,80.98
2018-09-05T04:51:36.557Z,81.08
2018-09-05T04:54:06.409Z,81.34
2018-09-05T04:56:35.381Z,80.60
2018-09-05T04:59:04.806Z,80.82
2018-09-05T05:01:34.594Z,80.58
2018-09-05T05:04:03.691Z,80.84
2018-09-05T05:06:32.849Z,80.79
2018-09-05T05:09:02.946Z,80.74
2018-09-05T05:11:31.899Z,80.53
2018-09-05T05:14:00.998Z,80.09
2018-09-05T05:16:30.035Z,80.21
2018-09-05T05:18:58.981Z,80.24
2018-09-05T05:21:28.038Z,80.29
2018-09-05T05:23:56.907Z,80.08
2018-09-05T05:26:25.755Z,80.53
2018-09-05T05:28:54.772Z,80.05
2018-09-05T05:31:23.715Z,80.30
2018-09-05T05:33:53.054Z,79.97
2018-09-05T05:36:22.911Z,80.20
2018-09-05T05:38:51.946Z,79.61
2018-09-05T05:41:21.009Z,80.12
2018-09-05T05:43:50.076Z,79.65
2018-09-05T05:46:19.140Z,79.67
2018-09-05T05:48:48.370Z,79.66
2018-09-05T05:51:17.433Z,79.45
2018-09-05T05:53:46.875Z,79.87
2018-09-05T05:56:15.733Z,79.59
2018-09-05T05:58:44.821Z,80.08
2018-09-05T06:01:14.376Z,79.32
2018-09-05T06:03:43.469Z,79.71
2018-09-05T06:06:12.554Z,79.40
2018-09-05T06:08:41.714Z,79.23
2018-09-05T06:11:10.809Z,79.02
2018-09-05T06:13:40.214Z,78.58
2018-09-05T06:16:09.123Z,78.32
2018-09-05T06:18:38.179Z,77.81
2018-09-05T06:21:07.455Z,77.60
2018-09-05T06:23:36.494Z,78.05
2018-09-05T06:26:05.986Z,76.72
2018-09-05T06:28:35.370Z,76.97
2018-09-05T06:31:04.467Z,76.60
2018-09-05T06:33:33.660Z,76.81
2018-09-05T06:36:03.282Z,76.30
2018-09-05T06:38:32.298Z,76.74
2018-09-05T06:41:01.948Z,76.44
2018-09-05T06:43:31.138Z,76.21
2018-09-05T06:46:00.142Z,75.41
2018-09-05T06:48:29.296Z,76.05
2018-09-05T06:51:03.384Z,75.41
2018-09-05T06:53:32.443Z,75.11
2018-09-05T06:56:01.758Z,75.42
2018-09-05T06:58:30.946Z,74.38
2018-09-05T07:01:00.555Z,74.60
2018-09-05T07:03:29.752Z,74.22
2018-09-05T07:05:58.994Z,73.87
2018-09-05T07:08:28.486Z,73.62
2018-09-05T07:10:57.444Z,73.96
2018-09-05T07:13:26.531Z,74.40
2018-09-05T07:15:56.114Z,74.10
2018-09-05T07:18:26.125Z,73.36
2018-09-05T07:21:05.686Z,72.73
2018-09-05T07:23:24.544Z,72.56
2018-09-05T07:25:53.544Z,72.01
2018-09-05T07:28:22.643Z,71.02
2018-09-05T07:30:51.551Z,71.47
2018-09-05T07:33:20.663Z,71.56
2018-09-05T07:35:56.135Z,70.56
2018-09-05T07:38:25.157Z,70.07
2018-09-05T07:40:54.257Z,69.95
2018-09-05T07:43:23.246Z,70.14
2018-09-05T07:45:52.299Z,70.92
2018-09-05T07:48:21.366Z,70.87
2018-09-05T07:50:50.367Z,70.78
2018-09-05T07:53:19.434Z,69.62
2018-09-05T07:55:48.552Z,69.23
2018-09-05T07:58:17.509Z,69.36
2018-09-05T08:00:46.546Z,69.17
2018-09-05T08:03:15.641Z,69.33
2018-09-05T08:05:44.766Z,69.05
2018-09-05T08:08:14.342Z,69.30
2018-09-05T08:10:47.163Z,69.07
2018-09-05T08:13:16.126Z,68.98
2018-09-05T08:15:44.998Z,68.09
2018-09-05T08:18:14.136Z,66.40
2018-09-05T08:20:43.841Z,65.35
2018-09-05T08:23:13.131Z,63.76
2018-09-05T08:25:42.518Z,63.17
2018-09-05T08:28:12.039Z,63.64
2018-09-05T08:30:40.973Z,63.84
2018-09-05T08:33:10.038Z,63.61
2018-09-05T08:35:39.226Z,63.56
2018-09-05T08:38:08.438Z,63.34
2018-09-05T08:40:37.963Z,63.80
2018-09-05T08:43:07.007Z,62.56
2018-09-05T08:45:36.277Z,61.54
2018-09-05T08:48:05.229Z,62.25
2018-09-05T08:50:34.145Z,62.56
2018-09-05T08:53:03.433Z,61.90
2018-09-05T08:55:32.380Z,61.79
2018-09-05T08:58:01.448Z,62.12
2018-09-05T09:00:30.783Z,62.15
2018-09-05T09:02:59.993Z,61.58
2018-09-05T09:05:29.177Z,61.63
2018-09-05T09:07:58.184Z,61.45
2018-09-05T09:10:27.689Z,61.71
2018-09-05T09:12:56.932Z,60.20
2018-09-05T09:15:26.050Z,59.60
2018-09-05T09:17:56.532Z,60.59
2018-09-05T09:20:25.465Z,60.33
2018-09-05T09:22:54.698Z,59.40
2018-09-05T09:25:23.616Z,58.62
2018-09-05T09:27:52.994Z,58.04
2018-09-05T09:30:22.279Z,58.32
2018-09-05T09:32:51.388Z,57.32
2018-09-05T09:35:20.854Z,57.07
2018-09-05T09:37:50.543Z,57.21
2018-09-05T09:40:19.885Z,57.48
2018-09-05T09:42:49.602Z,58.35
2018-09-05T09:45:18.630Z,57.55
2018-09-05T09:47:48.043Z,57.40
2018-09-05T09:50:17.177Z,56.76
2018-09-05T09:52:46.360Z,57.34
2018-09-05T09:55:15.427Z,56.63
2018-09-05T09:57:44.414Z,56.81
2018-09-05T10:00:13.989Z,55.32
2018-09-05T10:02:48.241Z,55.64
2018-09-05T10:05:23.056Z,55.08
2018-09-05T10:07:56.979Z,55.22
2018-09-05T10:10:31.031Z,54.79
2018-09-05T10:13:05.201Z,54.45
2018-09-05T10:15:39.399Z,53.20
2018-09-05T10:18:14.355Z,52.07
2018-09-05T10:20:43.577Z,52.35
2018-09-05T10:23:13.342Z,52.21
2018-09-05T10:25:42.147Z,52.38
2018-09-05T10:28:11.233Z,52.23
2018-09-05T10:30:40.178Z,52.39
2018-09-05T10:33:09.231Z,50.88
2018-09-05T10:35:38.229Z,48.87
2018-09-05T10:38:07.342Z,49.08
2018-09-05T10:40:36.277Z,49.38
2018-09-05T10:43:05.331Z,49.51
2018-09-05T10:45:34.267Z,49.56
2018-09-05T10:48:03.357Z,49.29
2018-09-05T10:50:32.746Z,49.28
2018-09-05T10:53:01.804Z,49.10
2018-09-05T10:55:31.229Z,48.30
2018-09-05T10:58:00.355Z,48.13
2018-09-05T11:00:29.583Z,48.83
2018-09-05T11:02:59.161Z,48.12
2018-09-05T11:05:28.302Z,47.68
2018-09-05T11:07:57.494Z,48.34
2018-09-05T11:10:26.464Z,47.93
2018-09-05T11:12:55.767Z,47.69
2018-09-05T11:15:24.855Z,47.53
2018-09-05T11:17:53.727Z,48.06
2018-09-05T11:20:22.750Z,47.67
2018-09-05T11:22:51.901Z,48.56
2018-09-05T11:25:20.888Z,47.82
2018-09-05T11:27:49.967Z,47.83
2018-09-05T11:30:19.160Z,48.29
2018-09-05T11:32:48.434Z,46.64
2018-09-05T11:35:17.467Z,43.93
2018-09-05T11:37:46.665Z,43.79
2018-09-05T11:40:15.875Z,45.01
2018-09-05T11:42:45.694Z,43.77
2018-09-05T11:45:14.624Z,43.23
2018-09-05T11:47:43.771Z,43.41
2018-09-05T11:50:12.931Z,41.80
2018-09-05T11:52:42.035Z,41.44
2018-09-05T11:55:11.584Z,41.83
2018-09-05T11:57:41.021Z,41.73
2018-09-05T12:00:10.380Z,41.25
2018-09-05T12:02:39.725Z,40.95
2018-09-05T12:05:09.510Z,40.73
2018-09-05T12:07:38.744Z,40.68
2018-09-05T12:10:08.201Z,38.91
2018-09-05T12:12:38.202Z,40.29
2018-09-05T12:15:07.411Z,39.63
2018-09-05T12:17:36.677Z,40.13
2018-09-05T12:20:06.339Z,39.56
2018-09-05T12:22:35.381Z,40.64
2018-09-05T12:25:04.573Z,39.16
2018-09-05T12:27:33.609Z,39.33
2018-09-05T12:30:03.145Z,40.54
2018-09-05T12:32:32.140Z,38.94
2018-09-05T12:35:01.135Z,39.17
2018-09-05T12:37:30.497Z,38.72
2018-09-05T12:39:59.614Z,39.46
2018-09-05T12:42:28.593Z,38.70
2018-09-05T12:44:57.752Z,38.39
2018-09-05T12:47:26.833Z,38.63
2018-09-05T12:50:26.678Z,38.82
2018-09-05T12:52:56.617Z,38.15
2018-09-05T12:55:26.761Z,38.53
2018-09-05T12:57:56.099Z,38.04
2018-09-05T13:00:25.199Z,38.58
2018-09-05T13:02:55.063Z,38.65
2018-09-05T13:05:25.486Z,38.19
2018-09-05T13:07:54.945Z,37.87
2018-09-05T13:10:24.172Z,38.24
2018-09-05T13:12:53.133Z,37.56
2018-09-05T13:15:22.071Z,37.61
2018-09-05T13:17:51.065Z,36.95
2018-09-05T13:20:20.284Z,37.27
2018-09-05T13:22:49.313Z,38.55
2018-09-05T13:25:18.652Z,38.50
2018-09-05T13:27:47.623Z,38.53
2018-09-05T13:30:17.653Z,37.80
2018-09-05T13:32:46.777Z,37.68
2018-09-05T13:35:15.923Z,38.26
2018-09-05T13:37:44.837Z,38.45
2018-09-05T13:40:14.493Z,38.09
2018-09-05T13:42:43.509Z,37.84
2018-09-05T13:45:12.578Z,37.13
2018-09-05T13:47:41.713Z,35.32
2018-09-05T13:50:10.884Z,36.40
2018-09-05T13:52:40.025Z,35.74
2018-09-05T13:55:09.414Z,35.17
2018-09-05T13:57:38.466Z,35.87
2018-09-05T14:00:07.591Z,36.17
2018-09-05T14:02:36.624Z,35.32
2018-09-05T14:05:05.732Z,34.32
2018-09-05T14:07:34.810Z,33.86
2018-09-05T14:10:03.989Z,34.75
2018-09-05T14:12:33.093Z,35.26
2018-09-05T14:15:02.085Z,34.80
2018-09-05T14:17:32.006Z,33.73
2018-09-05T14:20:01.070Z,33.98
2018-09-05T14:22:30.592Z,34.09
2018-09-05T14:24:59.842Z,33.90
2018-09-05T14:27:28.817Z,34.63
2018-09-05T14:29:58.025Z,34.63
2018-09-05T14:32:27.089Z,34.75
2018-09-05T14:34:56.776Z,35.29
2018-09-05T14:37:25.827Z,34.40
2018-09-05T14:39:54.996Z,34.97
2018-09-05T14:42:24.304Z,34.69
2018-09-05T14:44:53.730Z,34.64
2018-09-05T14:47:23.338Z,35.09
2018-09-05T14:49:52.651Z,34.51
2018-09-05T14:52:21.729Z,35.27
2018-09-05T14:54:50.662Z,35.03
2018-09-05T14:57:19.800Z,35.31
2018-09-05T14:59:48.838Z,34.37
2018-09-05T15:02:18.973Z,34.56
2018-09-05T15:04:48.043Z,35.05
2018-09-05T15:07:17.276Z,35.01
2018-09-05T15:09:46.191Z,34.30
2018-09-05T15:12:15.198Z,33.89
2018-09-05T15:14:44.510Z,33.99
2018-09-05T15:17:13.493Z,34.90
2018-09-05T15:19:42.400Z,35.32
2018-09-05T15:22:11.472Z,34.62
2018-09-05T15:24:40.710Z,35.27
2018-09-05T15:27:10.086Z,34.70
2018-09-05T15:29:38.966Z,34.78
2018-09-05T15:32:08.169Z,35.46
2018-09-05T15:34:37.263Z,35.83
2018-09-05T15:37:06.357Z,35.48
2018-09-05T15:39:35.490Z,35.32
2018-09-05T15:42:04.422Z,35.02
2018-09-05T15:44:34.310Z,35.59
2018-09-05T15:47:03.960Z,35.94
2018-09-05T15:49:33.072Z,35.67
2018-09-05T15:52:02.355Z,36.18
2018-09-05T15:54:31.460Z,35.57
2018-09-05T15:57:00.563Z,36.15
2018-09-05T15:59:29.672Z,35.35
2018-09-05T16:01:59.889Z,36.14
2018-09-05T16:04:29.208Z,35.30
2018-09-05T16:06:57.995Z,36.39
2018-09-05T16:09:27.050Z,35.64
2018-09-05T16:11:56.397Z,35.71
2018-09-05T16:14:25.566Z,36.47
2018-09-05T16:16:54.554Z,36.92
2018-09-05T16:19:23.721Z,37.27
2018-09-05T16:21:52.911Z,36.67
2018-09-05T16:24:22.305Z,37.32
2018-09-05T16:26:51.925Z,37.93
2018-09-05T16:29:21.118Z,37.96
2018-09-05T16:31:50.187Z,37.41
2018-09-05T16:34:19.520Z,37.65
2018-09-05T16:36:48.510Z,37.53
2018-09-05T16:39:17.708Z,37.93
2018-09-05T16:41:46.742Z,37.91
2018-09-05T16:44:15.867Z,37.54
2018-09-05T16:46:45.044Z,37.95
2018-09-05T16:49:14.600Z,37.61
2018-09-05T16:51:44.157Z,37.37
2018-09-05T16:54:13.557Z,37.99
2018-09-05T16:56:42.547Z,37.41
2018-09-05T16:59:11.665Z,36.34
2018-09-05T17:01:40.625Z,36.79
2018-09-05T17:04:09.593Z,36.19
2018-09-05T17:06:38.582Z,36.90
2018-09-05T17:09:09.941Z,36.86
2018-09-05T17:11:39.300Z,36.20
2018-09-05T17:14:08.255Z,36.74
2018-09-05T17:16:38.075Z,37.48
2018-09-05T17:19:07.877Z,36.94
2018-09-05T17:21:36.912Z,37.34
2018-09-05T17:24:06.697Z,38.17
2018-09-05T17:26:35.802Z,37.63
2018-09-05T17:29:05.472Z,37.53
2018-09-05T17:31:34.696Z,38.85
2018-09-05T17:34:04.127Z,38.23
2018-09-05T17:36:33.269Z,39.29
2018-09-05T17:39:02.632Z,39.25
2018-09-05T17:41:31.609Z,39.37
2018-09-05T17:44:00.485Z,39.84
2018-09-05T17:46:29.582Z,39.80
2018-09-05T17:48:59.297Z,40.03
2018-09-05T17:51:28.751Z,39.95
2018-09-05T17:53:57.903Z,40.12
2018-09-05T17:56:26.857Z,41.00
2018-09-05T17:58:55.964Z,40.71
2018-09-05T18:01:25.755Z,40.77
2018-09-05T18:03:54.917Z,41.73
2018-09-05T18:06:24.517Z,41.36
2018-09-05T18:08:53.491Z,41.93
2018-09-05T18:11:22.888Z,42.76
2018-09-05T18:13:51.942Z,42.92
2018-09-05T18:16:21.144Z,43.20
2018-09-05T18:18:50.431Z,43.39
2018-09-05T18:21:19.651Z,43.69
2018-09-05T18:23:49.109Z,44.29
2018-09-05T18:26:18.427Z,44.14
2018-09-05T18:28:47.462Z,44.57
2018-09-05T18:31:16.756Z,44.72
2018-09-05T18:33:45.918Z,45.62
2018-09-05T18:36:15.081Z,46.82
2018-09-05T18:38:44.577Z,46.41
2018-09-05T18:41:13.705Z,47.13
2018-09-05T18:43:42.807Z,46.77
2018-09-05T18:46:12.246Z,46.81
2018-09-05T18:48:41.320Z,46.19
2018-09-05T18:51:10.303Z,47.00
2018-09-05T18:53:39.407Z,46.75
2018-09-05T18:56:08.686Z,48.44
2018-09-05T18:58:37.693Z,49.07
2018-09-05T19:01:06.707Z,49.56
2018-09-05T19:03:35.969Z,49.59
2018-09-05T19:06:04.914Z,49.57
2018-09-05T19:08:34.101Z,49.88
2018-09-05T19:11:03.683Z,50.14
2018-09-05T19:13:32.874Z,50.16
2018-09-05T19:16:01.954Z,51.19
2018-09-05T19:18:31.961Z,51.37
2018-09-05T19:21:01.299Z,50.66
2018-09-05T19:23:30.402Z,51.31
2018-09-05T19:25:59.741Z,51.20
2018-09-05T19:28:29.139Z,50.86
2018-09-05T19:30:58.993Z,51.23
2018-09-05T19:33:28.083Z,50.75
2018-09-05T19:35:57.518Z,51.23
2018-09-05T19:38:26.581Z,51.39
2018-09-05T19:40:55.736Z,51.53
2018-09-05T19:43:24.714Z,51.24
2018-09-05T19:45:53.670Z,50.96
2018-09-05T19:48:22.506Z,51.77
2018-09-05T19:50:51.718Z,51.13
2018-09-05T19:53:21.409Z,51.67
2018-09-05T19:55:50.603Z,51.22
2018-09-05T19:58:19.722Z,51.81
2018-09-05T20:00:48.739Z,51.47
2018-09-05T20:03:17.712Z,51.60
2018-09-05T20:05:46.691Z,52.00
2018-09-05T20:08:16.669Z,52.19
2018-09-05T20:10:46.235Z,52.49
2018-09-05T20:13:15.326Z,52.43
2018-09-05T20:15:44.402Z,52.68
2018-09-05T20:18:13.620Z,52.60
2018-09-05T20:20:42.609Z,53.01
2018-09-05T20:23:11.717Z,53.28
2018-09-05T20:25:40.813Z,54.11
2018-09-05T20:28:09.839Z,53.55
2018-09-05T20:30:39.270Z,54.51
2018-09-05T20:33:08.680Z,53.97
2018-09-05T20:35:38.404Z,54.25
2018-09-05T20:38:07.282Z,54.95
2018-09-05T20:40:36.365Z,54.59
2018-09-05T20:43:05.463Z,54.92
2018-09-05T20:45:34.604Z,55.95
2018-09-05T20:48:04.212Z,55.52
2018-09-05T20:50:33.358Z,55.71
2018-09-05T20:53:02.366Z,56.47
2018-09-05T20:55:31.330Z,56.02
2018-09-05T20:58:00.688Z,56.08
2018-09-05T21:00:29.654Z,56.19
2018-09-05T21:02:58.657Z,56.63
2018-09-05T21:05:28.139Z,57.54
2018-09-05T21:07:57.165Z,57.46
2018-09-05T21:10:26.244Z,57.96
2018-09-05T21:12:55.256Z,57.97
2018-09-05T21:15:27.116Z,57.85
2018-09-05T21:17:55.990Z,57.80
2018-09-05T21:20:25.192Z,58.75
2018-09-05T21:22:54.096Z,58.40
2018-09-05T21:25:23.073Z,58.37
2018-09-05T21:27:52.165Z,59.16
2018-09-05T21:30:21.459Z,59.05
2018-09-05T21:32:50.561Z,59.35
2018-09-05T21:35:19.474Z,59.00
2018-09-05T21:37:48.583Z,59.14
2018-09-05T21:40:17.607Z,59.48
2018-09-05T21:42:46.618Z,60.15
2018-09-05T21:45:16.271Z,59.73
2018-09-05T21:47:45.501Z,60.18
2018-09-05T21:50:14.738Z,60.45
2018-09-05T21:52:44.086Z,60.35
2018-09-05T21:55:13.531Z,60.13
2018-09-05T21:57:42.714Z,60.16
2018-09-05T22:00:12.355Z,60.77
2018-09-05T22:02:41.722Z,61.00
2018-09-05T22:05:10.774Z,61.07
2018-09-05T22:07:40.159Z,60.37
2018-09-05T22:10:09.495Z,60.93
2018-09-05T22:12:38.408Z,60.56
2018-09-05T22:15:07.958Z,61.33
2018-09-05T22:17:37.103Z,60.93
2018-09-05T22:20:06.253Z,61.58
2018-09-05T22:22:35.377Z,60.61
2018-09-05T22:25:04.508Z,61.00
2018-09-05T22:27:33.829Z,61.55
2018-09-05T22:30:02.901Z,61.74
2018-09-05T22:32:31.853Z,61.21
2018-09-05T22:35:00.834Z,61.61
2018-09-05T22:37:29.815Z,61.87
2018-09-05T22:39:58.827Z,61.85
2018-09-05T22:42:27.811Z,61.54
2018-09-05T22:45:07.921Z,61.90
2018-09-05T22:48:46.640Z,62.29
2018-09-05T22:51:33.222Z,62.28
2018-09-05T22:54:16.902Z,62.04
2018-09-05T22:58:05.408Z,62.56
2018-09-05T23:02:49.567Z,62.60
2018-09-05T23:08:48.391Z,62.68
2018-09-05T23:11:59.473Z,62.76
2018-09-05T23:14:40.445Z,63.02
2018-09-05T23:17:21.046Z,63.24
2018-09-05T23:21:00.119Z,63.23
2018-09-05T23:23:40.676Z,63.22
2018-09-05T23:26:09.865Z,64.08
2018-09-05T23:28:39.490Z,63.32
2018-09-05T23:31:08.633Z,63.84
2018-09-05T23:33:38.462Z,63.61
2018-09-05T23:36:08.089Z,64.10
2018-09-05T23:38:37.694Z,63.98
2018-09-05T23:41:07.373Z,64.49
2018-09-05T23:43:36.468Z,63.84
2018-09-05T23:46:05.446Z,64.60
2018-09-05T23:48:34.462Z,64.21
2018-09-05T23:51:03.636Z,64.30
2018-09-05T23:53:33.414Z,64.45
2018-09-05T23:56:02.417Z,64.31
2018-09-05T23:58:32.204Z,64.90
